createdAt,value
2019-03-27T00:00:15.394Z,21.5
2019-03-27T00:01:05.171Z,21.5
2019-03-27T00:01:55.243Z,21.5
2019-03-27T00:02:45.566Z,21.5
2019-03-27T00:03:35.349Z,21.5
2019-03-27T00:04:25.416Z,21.5
2019-03-27T00:05:15.474Z,21.5
2019-03-27T00:06:05.543Z,21.5
2019-03-27T00:06:55.876Z,21.5
2019-03-27T00:07:45.658Z,21.5
2019-03-27T00:08:35.989Z,21.5
2019-03-27T00:09:26.056Z,21.5
2019-03-27T00:10:16.118Z,21.5
2019-03-27T00:11:06.174Z,21.5
2019-03-27T00:11:55.951Z,21.4
2019-03-27T00:12:46.326Z,21.5
2019-03-27T00:13:36.355Z,21.5
2019-03-27T00:14:26.211Z,21.5
2019-03-27T00:15:16.481Z,21.5
2019-03-27T00:16:06.528Z,21.5
2019-03-27T00:16:56.608Z,21.5
2019-03-27T00:17:46.382Z,21.5
2019-03-27T00:18:36.715Z,21.5
2019-03-27T00:19:26.545Z,21.5
2019-03-27T00:20:16.368Z,21.5
2019-03-27T00:21:06.381Z,21.5
2019-03-27T00:21:56.957Z,21.5
2019-03-27T00:22:47.034Z,21.5
2019-03-27T00:23:37.070Z,21.5
2019-03-27T00:24:26.875Z,21.5
2019-03-27T00:25:17.203Z,21.5
2019-03-27T00:26:06.985Z,21.5
2019-03-27T00:26:57.322Z,21.5
2019-03-27T00:27:47.389Z,21.5
2019-03-27T00:28:37.440Z,21.5
2019-03-27T00:29:27.503Z,21.5
2019-03-27T00:30:17.613Z,21.5
2019-03-27T00:31:07.625Z,21.5
2019-03-27T00:31:57.677Z,21.5
2019-03-27T00:32:47.739Z,21.5
2019-03-27T00:33:37.529Z,21.5
2019-03-27T00:34:27.865Z,21.5
2019-03-27T00:35:17.385Z,21.5
2019-03-27T00:36:07.987Z,21.5
2019-03-27T00:36:57.779Z,21.5
2019-03-27T00:37:47.571Z,21.5
2019-03-27T00:38:38.165Z,21.5
2019-03-27T00:39:28.234Z,21.5
2019-03-27T00:40:18.009Z,21.5
2019-03-27T00:41:08.345Z,21.5
2019-03-27T00:41:58.401Z,21.5
2019-03-27T00:42:48.471Z,21.5
2019-03-27T00:43:38.522Z,21.5
2019-03-27T00:44:28.589Z,21.5
2019-03-27T00:45:27.840Z,21.5
2019-03-27T00:46:08.432Z,21.5
2019-03-27T00:46:58.770Z,21.5
2019-03-27T00:47:48.829Z,21.5
2019-03-27T00:48:38.614Z,21.5
2019-03-27T00:49:28.946Z,21.5
2019-03-27T00:50:19.026Z,21.5
2019-03-27T00:51:09.137Z,21.5
2019-03-27T00:51:59.136Z,21.5
2019-03-27T00:52:49.190Z,21.5
2019-03-27T00:53:38.701Z,21.5
2019-03-27T00:54:29.034Z,21.5
2019-03-27T00:55:19.366Z,21.5
2019-03-27T00:56:08.968Z,21.5
2019-03-27T00:56:59.508Z,21.5
2019-03-27T00:57:49.281Z,21.5
2019-03-27T00:58:39.366Z,21.5
2019-03-27T00:59:29.213Z,21.5
2019-03-27T01:00:19.790Z,21.5
2019-03-27T01:01:09.515Z,21.5
2019-03-27T01:01:59.598Z,21.5
2019-03-27T01:02:49.918Z,21.5
2019-03-27T01:03:39.978Z,21.5
2019-03-27T01:04:29.765Z,21.5
2019-03-27T01:05:19.818Z,21.5
2019-03-27T01:06:10.163Z,21.5
2019-03-27T01:07:00.220Z,21.5
2019-03-27T01:07:50.003Z,21.5
2019-03-27T01:08:40.340Z,21.5
2019-03-27T01:09:30.406Z,21.5
2019-03-27T01:10:20.195Z,21.6
2019-03-27T01:11:10.520Z,21.5
2019-03-27T01:12:00.629Z,21.5
2019-03-27T01:12:50.637Z,21.5
2019-03-27T01:13:40.745Z,21.5
2019-03-27T01:14:30.774Z,21.5
2019-03-27T01:15:20.552Z,21.5
2019-03-27T01:16:10.612Z,21.5
2019-03-27T01:17:00.673Z,21.5
2019-03-27T01:17:51.007Z,21.5
2019-03-27T01:18:40.798Z,21.5
2019-03-27T01:19:31.137Z,21.5
2019-03-27T01:20:20.912Z,21.5
2019-03-27T01:21:11.250Z,21.5
2019-03-27T01:22:00.762Z,21.5
2019-03-27T01:22:51.364Z,21.5
2019-03-27T01:23:41.449Z,21.6
2019-03-27T01:24:31.484Z,21.5
2019-03-27T01:25:21.284Z,21.5
2019-03-27T01:26:11.616Z,21.5
2019-03-27T01:27:01.749Z,21.5
2019-03-27T01:27:51.736Z,21.6
2019-03-27T01:28:41.784Z,21.5
2019-03-27T01:29:31.584Z,21.5
2019-03-27T01:30:21.952Z,21.5
2019-03-27T01:31:11.980Z,21.5
2019-03-27T01:32:02.031Z,21.5
2019-03-27T01:32:52.089Z,21.5
2019-03-27T01:33:42.144Z,21.5
2019-03-27T01:34:32.204Z,21.5
2019-03-27T01:35:22.294Z,21.5
2019-03-27T01:36:12.057Z,21.5
2019-03-27T01:37:02.399Z,21.5
2019-03-27T01:37:52.176Z,21.5
2019-03-27T01:38:42.231Z,21.5
2019-03-27T01:39:32.579Z,21.5
2019-03-27T01:40:22.368Z,21.5
2019-03-27T01:41:12.696Z,21.5
2019-03-27T01:42:02.751Z,21.5
2019-03-27T01:42:52.545Z,21.5
2019-03-27T01:43:42.601Z,21.5
2019-03-27T01:44:32.928Z,21.5
2019-03-27T01:45:22.993Z,21.5
2019-03-27T01:46:13.052Z,21.5
2019-03-27T01:47:02.867Z,21.5
2019-03-27T01:47:53.165Z,21.6
2019-03-27T01:48:43.235Z,21.5
2019-03-27T01:49:33.298Z,21.6
2019-03-27T01:50:23.105Z,21.5
2019-03-27T01:51:13.420Z,21.5
2019-03-27T01:52:03.494Z,21.5
2019-03-27T01:52:53.535Z,21.5
2019-03-27T01:53:43.597Z,21.5
2019-03-27T01:54:33.662Z,21.5
2019-03-27T01:55:23.720Z,21.5
2019-03-27T01:56:13.790Z,21.5
2019-03-27T01:57:03.565Z,21.5
2019-03-27T01:57:53.900Z,21.5
2019-03-27T01:58:43.960Z,21.5
2019-03-27T01:59:33.762Z,21.5
2019-03-27T02:00:24.089Z,21.6
2019-03-27T02:01:13.867Z,21.6
2019-03-27T02:02:04.218Z,21.5
2019-03-27T02:02:54.261Z,21.5
2019-03-27T02:03:44.329Z,21.6
2019-03-27T02:04:34.384Z,21.5
2019-03-27T02:05:24.450Z,21.6
2019-03-27T02:06:14.504Z,21.6
2019-03-27T02:07:04.566Z,21.6
2019-03-27T02:07:54.631Z,21.5
2019-03-27T02:08:44.689Z,21.5
2019-03-27T02:09:34.464Z,21.5
2019-03-27T02:10:24.851Z,21.5
2019-03-27T02:11:14.864Z,21.6
2019-03-27T02:12:04.927Z,21.6
2019-03-27T02:12:54.989Z,21.6
2019-03-27T02:13:45.056Z,21.6
2019-03-27T02:14:35.110Z,21.6
2019-03-27T02:15:25.173Z,21.6
2019-03-27T02:16:14.947Z,21.5
2019-03-27T02:17:05.291Z,21.5
2019-03-27T02:17:55.348Z,21.5
2019-03-27T02:18:45.399Z,21.6
2019-03-27T02:19:35.193Z,21.5
2019-03-27T02:20:25.526Z,21.5
2019-03-27T02:21:15.320Z,21.5
2019-03-27T02:22:05.687Z,21.6
2019-03-27T02:22:55.438Z,21.5
2019-03-27T02:23:45.768Z,21.6
2019-03-27T02:24:35.831Z,21.6
2019-03-27T02:25:25.890Z,21.6
2019-03-27T02:26:15.954Z,21.5
2019-03-27T02:27:06.018Z,21.6
2019-03-27T02:27:55.793Z,21.6
2019-03-27T02:28:45.859Z,21.6
2019-03-27T02:29:36.203Z,21.6
2019-03-27T02:30:26.397Z,21.5
2019-03-27T02:31:16.075Z,21.5
2019-03-27T02:32:06.379Z,21.6
2019-03-27T02:32:56.460Z,21.6
2019-03-27T02:33:46.292Z,21.6
2019-03-27T02:34:36.589Z,21.6
2019-03-27T02:35:26.344Z,21.5
2019-03-27T02:36:16.691Z,21.5
2019-03-27T02:37:06.756Z,21.6
2019-03-27T02:37:56.815Z,21.6
2019-03-27T02:38:46.961Z,21.6
2019-03-27T02:39:36.670Z,21.5
2019-03-27T02:40:26.978Z,21.6
2019-03-27T02:41:17.188Z,21.6
2019-03-27T02:42:06.600Z,21.6
2019-03-27T02:42:57.178Z,21.6
2019-03-27T02:43:47.248Z,21.6
2019-03-27T02:44:37.303Z,21.5
2019-03-27T02:45:27.355Z,21.6
2019-03-27T02:46:26.280Z,21.6
2019-03-27T02:47:07.485Z,21.5
2019-03-27T02:47:57.537Z,21.6
2019-03-27T02:48:47.601Z,21.6
2019-03-27T02:49:37.668Z,21.6
2019-03-27T02:50:27.826Z,21.6
2019-03-27T02:51:17.772Z,21.6
2019-03-27T02:52:07.839Z,21.6
2019-03-27T02:52:57.915Z,21.6
2019-03-27T02:53:47.953Z,21.5
2019-03-27T02:54:38.010Z,21.6
2019-03-27T02:55:28.065Z,21.5
2019-03-27T02:56:18.133Z,21.6
2019-03-27T02:57:08.187Z,21.5
2019-03-27T02:57:58.250Z,21.6
2019-03-27T02:58:48.325Z,21.6
2019-03-27T02:59:38.379Z,21.6
2019-03-27T03:00:28.434Z,21.6
2019-03-27T03:01:18.215Z,21.6
2019-03-27T03:02:08.290Z,21.6
2019-03-27T03:02:58.625Z,21.6
2019-03-27T03:03:48.688Z,21.6
2019-03-27T03:07:19.185Z,21.6
2019-03-27T03:08:09.544Z,21.6
2019-03-27T03:08:59.319Z,21.6
2019-03-27T03:09:49.656Z,21.6
2019-03-27T03:10:39.469Z,21.6
2019-03-27T03:11:29.761Z,21.6
2019-03-27T03:12:19.800Z,21.6
2019-03-27T03:13:09.877Z,21.6
2019-03-27T03:13:59.655Z,21.6
2019-03-27T03:14:49.718Z,21.6
2019-03-27T03:15:40.053Z,21.6
2019-03-27T03:16:44.028Z,21.6
2019-03-27T03:17:19.893Z,21.6
2019-03-27T03:18:10.252Z,21.6
2019-03-27T03:19:00.324Z,21.6
2019-03-27T03:19:50.338Z,21.6
2019-03-27T03:20:40.405Z,21.6
2019-03-27T03:21:30.214Z,21.6
2019-03-27T03:22:20.311Z,21.6
2019-03-27T03:23:10.580Z,21.6
2019-03-27T03:24:00.663Z,21.6
2019-03-27T03:24:50.707Z,21.6
2019-03-27T03:25:40.778Z,21.6
2019-03-27T03:26:30.836Z,21.6
2019-03-27T03:27:20.901Z,21.6
2019-03-27T03:28:10.956Z,21.6
2019-03-27T03:29:01.022Z,21.6
2019-03-27T03:29:51.070Z,21.6
2019-03-27T03:30:41.192Z,21.6
2019-03-27T03:31:31.230Z,21.6
2019-03-27T03:32:21.302Z,21.6
2019-03-27T03:33:11.380Z,21.6
2019-03-27T03:34:01.576Z,21.6
2019-03-27T03:34:51.510Z,21.6
2019-03-27T03:35:41.523Z,21.6
2019-03-27T03:36:31.404Z,21.6
2019-03-27T03:37:21.625Z,21.6
2019-03-27T03:38:11.706Z,21.6
2019-03-27T03:39:01.725Z,21.6
2019-03-27T03:39:51.530Z,21.6
2019-03-27T03:40:41.883Z,21.6
2019-03-27T03:41:31.919Z,21.6
2019-03-27T03:42:21.975Z,21.6
2019-03-27T03:43:12.047Z,21.6
2019-03-27T03:44:01.849Z,21.6
2019-03-27T03:44:52.184Z,21.6
2019-03-27T03:45:42.226Z,21.6
2019-03-27T03:46:32.017Z,21.6
2019-03-27T03:47:22.341Z,21.6
2019-03-27T03:48:12.404Z,21.6
2019-03-27T03:49:02.503Z,21.6
2019-03-27T03:49:52.550Z,21.6
2019-03-27T03:50:42.635Z,21.6
2019-03-27T03:51:32.646Z,21.6
2019-03-27T03:52:22.434Z,21.6
2019-03-27T03:53:12.775Z,21.6
2019-03-27T03:54:02.844Z,21.6
2019-03-27T03:54:52.913Z,21.6
2019-03-27T03:55:42.979Z,21.6
2019-03-27T03:56:33.008Z,21.6
2019-03-27T03:57:23.051Z,21.6
2019-03-27T03:58:13.156Z,21.6
2019-03-27T03:59:03.196Z,21.6
2019-03-27T03:59:53.299Z,21.6
2019-03-27T04:00:43.340Z,21.6
2019-03-27T04:01:33.378Z,21.6
2019-03-27T04:02:23.316Z,21.6
2019-03-27T04:03:13.466Z,21.6
2019-03-27T04:04:03.611Z,21.6
2019-03-27T04:04:53.615Z,21.6
2019-03-27T04:05:43.680Z,21.6
2019-03-27T04:06:33.735Z,21.6
2019-03-27T04:07:23.790Z,21.6
2019-03-27T04:08:13.877Z,21.6
2019-03-27T04:09:03.657Z,21.6
2019-03-27T04:09:53.691Z,21.6
2019-03-27T04:10:43.897Z,21.6
2019-03-27T04:11:33.812Z,21.6
2019-03-27T04:12:23.883Z,21.6
2019-03-27T04:13:14.265Z,21.6
2019-03-27T04:14:04.003Z,21.6
2019-03-27T04:14:54.045Z,21.6
2019-03-27T04:15:44.388Z,21.6
2019-03-27T04:16:34.468Z,21.6
2019-03-27T04:17:24.501Z,21.6
2019-03-27T04:18:14.579Z,21.6
2019-03-27T04:19:04.681Z,21.6
2019-03-27T04:19:54.698Z,21.6
2019-03-27T04:20:44.753Z,21.6
2019-03-27T04:21:34.825Z,21.6
2019-03-27T04:22:24.886Z,21.6
2019-03-27T04:23:14.670Z,21.6
2019-03-27T04:24:04.977Z,21.6
2019-03-27T04:24:55.050Z,21.6
2019-03-27T04:26:11.379Z,21.6
2019-03-27T04:26:35.233Z,21.6
2019-03-27T04:27:25.235Z,21.6
2019-03-27T04:28:15.296Z,21.6
2019-03-27T04:29:05.336Z,21.6
2019-03-27T04:29:55.426Z,21.6
2019-03-27T04:30:45.486Z,21.6
2019-03-27T04:31:35.529Z,21.6
2019-03-27T04:32:25.602Z,21.6
2019-03-27T04:33:15.406Z,21.6
2019-03-27T04:34:05.434Z,21.6
2019-03-27T04:34:55.769Z,21.6
2019-03-27T04:35:45.836Z,21.6
2019-03-27T04:36:35.897Z,21.6
2019-03-27T04:37:25.957Z,21.6
2019-03-27T04:38:15.747Z,21.6
2019-03-27T04:39:06.080Z,21.6
2019-03-27T04:39:56.126Z,21.6
2019-03-27T04:40:45.918Z,21.6
2019-03-27T04:41:35.711Z,21.6
2019-03-27T04:42:26.316Z,21.6
2019-03-27T04:43:16.389Z,21.6
2019-03-27T04:44:06.439Z,21.6
2019-03-27T04:44:56.490Z,21.6
2019-03-27T04:45:46.549Z,21.6
2019-03-27T04:46:36.612Z,21.6
2019-03-27T04:47:33.310Z,21.6
2019-03-27T04:48:16.738Z,21.6
2019-03-27T04:49:08.870Z,21.6
2019-03-27T04:49:56.575Z,21.6
2019-03-27T04:50:46.911Z,21.6
2019-03-27T04:51:36.681Z,21.6
2019-03-27T04:52:26.752Z,21.6
2019-03-27T04:53:16.817Z,21.6
2019-03-27T04:54:07.146Z,21.6
2019-03-27T04:54:57.207Z,21.6
2019-03-27T04:55:47.262Z,21.6
2019-03-27T04:56:37.335Z,21.6
2019-03-27T04:57:27.399Z,21.6
2019-03-27T04:58:17.545Z,21.6
2019-03-27T04:59:07.500Z,21.6
2019-03-27T04:59:57.569Z,21.6
2019-03-27T05:00:47.372Z,21.6
2019-03-27T05:01:37.766Z,21.6
2019-03-27T05:02:27.749Z,21.6
2019-03-27T05:03:17.813Z,21.6
2019-03-27T05:04:07.880Z,21.6
2019-03-27T05:04:57.940Z,21.6
2019-03-27T05:05:47.995Z,21.6
2019-03-27T05:06:37.773Z,21.6
2019-03-27T05:07:28.111Z,21.6
2019-03-27T05:08:18.172Z,21.6
2019-03-27T05:09:08.234Z,21.6
2019-03-27T05:09:58.301Z,21.6
2019-03-27T05:10:48.072Z,21.6
2019-03-27T05:11:38.151Z,21.6
2019-03-27T05:12:28.559Z,21.7
2019-03-27T05:13:18.531Z,21.7
2019-03-27T05:14:08.589Z,21.7
2019-03-27T05:14:58.662Z,21.7
2019-03-27T05:15:48.777Z,21.7
2019-03-27T05:16:38.500Z,21.7
2019-03-27T05:17:28.554Z,21.7
2019-03-27T05:18:18.881Z,21.7
2019-03-27T05:19:08.956Z,21.7
2019-03-27T05:19:58.734Z,21.8
2019-03-27T05:20:48.530Z,21.8
2019-03-27T05:21:39.127Z,21.8
2019-03-27T05:22:29.186Z,21.8
2019-03-27T05:23:19.242Z,21.8
2019-03-27T05:24:09.041Z,21.8
2019-03-27T05:24:59.369Z,21.8
2019-03-27T05:25:49.160Z,21.8
2019-03-27T05:26:39.489Z,21.8
2019-03-27T05:27:29.542Z,21.8
2019-03-27T05:28:19.611Z,21.8
2019-03-27T05:29:09.671Z,21.8
2019-03-27T05:29:59.456Z,21.8
2019-03-27T05:30:49.793Z,21.8
2019-03-27T05:31:39.857Z,21.8
2019-03-27T05:32:29.628Z,21.8
2019-03-27T05:33:19.971Z,21.8
2019-03-27T05:34:09.750Z,21.8
2019-03-27T05:34:59.810Z,21.8
2019-03-27T05:35:50.145Z,21.8
2019-03-27T05:36:40.217Z,21.8
2019-03-27T05:37:30.277Z,21.8
2019-03-27T05:38:20.045Z,21.8
2019-03-27T05:39:10.390Z,21.8
2019-03-27T05:40:00.462Z,21.8
2019-03-27T05:40:50.505Z,21.8
2019-03-27T05:41:40.570Z,21.8
2019-03-27T05:42:30.628Z,21.8
2019-03-27T05:43:20.699Z,21.8
2019-03-27T05:44:10.750Z,21.8
2019-03-27T05:45:00.979Z,21.8
2019-03-27T05:45:50.864Z,21.8
2019-03-27T05:46:40.940Z,21.8
2019-03-27T05:47:30.989Z,21.8
2019-03-27T05:48:21.048Z,21.8
2019-03-27T05:49:11.132Z,21.8
2019-03-27T05:50:01.447Z,21.8
2019-03-27T05:50:51.254Z,21.8
2019-03-27T05:51:41.289Z,21.8
2019-03-27T05:52:31.351Z,21.8
2019-03-27T05:53:21.430Z,21.8
2019-03-27T05:54:11.205Z,21.8
2019-03-27T05:55:01.266Z,21.8
2019-03-27T05:55:51.039Z,21.8
2019-03-27T05:56:41.652Z,21.8
2019-03-27T05:57:31.716Z,21.8
2019-03-27T05:58:21.781Z,21.8
2019-03-27T05:59:11.826Z,21.8
2019-03-27T06:00:01.887Z,21.8
2019-03-27T06:00:51.683Z,21.8
2019-03-27T06:01:42.018Z,21.8
2019-03-27T06:02:32.082Z,21.8
2019-03-27T06:03:21.854Z,21.8
2019-03-27T06:05:19.036Z,21.8
2019-03-27T06:06:09.415Z,21.8
2019-03-27T06:06:59.441Z,21.8
2019-03-27T06:07:49.500Z,21.8
2019-03-27T06:08:39.285Z,21.8
2019-03-27T06:09:29.439Z,21.8
2019-03-27T06:10:19.406Z,21.8
2019-03-27T06:11:09.743Z,21.8
2019-03-27T06:11:59.798Z,21.8
2019-03-27T06:12:49.861Z,21.8
2019-03-27T06:13:39.913Z,21.8
2019-03-27T06:14:29.712Z,21.8
2019-03-27T06:15:20.029Z,21.8
2019-03-27T06:16:10.096Z,21.8
2019-03-27T06:17:00.208Z,21.8
2019-03-27T06:17:50.220Z,21.8
2019-03-27T06:18:40.288Z,21.8
2019-03-27T06:19:30.325Z,21.8
2019-03-27T06:20:20.385Z,21.9
2019-03-27T06:21:10.453Z,21.8
2019-03-27T06:22:00.505Z,21.8
2019-03-27T06:22:50.300Z,21.8
2019-03-27T06:23:40.635Z,21.8
2019-03-27T06:24:30.695Z,21.8
2019-03-27T06:25:20.473Z,21.9
2019-03-27T06:26:10.824Z,21.9
2019-03-27T06:27:00.603Z,21.9
2019-03-27T06:27:50.952Z,21.9
2019-03-27T06:28:40.999Z,21.9
2019-03-27T06:29:30.779Z,21.8
2019-03-27T06:30:21.118Z,21.8
2019-03-27T06:31:11.179Z,21.9
2019-03-27T06:32:00.983Z,21.9
2019-03-27T06:32:51.289Z,21.9
2019-03-27T06:33:41.351Z,21.9
2019-03-27T06:34:45.819Z,21.8
2019-03-27T06:35:21.202Z,21.9
2019-03-27T06:36:11.552Z,21.9
2019-03-27T06:37:01.315Z,21.9
2019-03-27T06:37:51.639Z,21.9
2019-03-27T06:38:41.718Z,21.9
2019-03-27T06:39:31.772Z,21.9
2019-03-27T06:40:21.835Z,21.9
2019-03-27T06:41:11.946Z,21.9
2019-03-27T06:42:01.949Z,21.9
2019-03-27T06:42:52.002Z,21.9
2019-03-27T06:43:42.078Z,21.9
2019-03-27T06:44:31.844Z,21.9
2019-03-27T06:45:22.189Z,21.9
2019-03-27T06:46:12.251Z,21.9
2019-03-27T06:47:02.301Z,21.9
2019-03-27T06:47:52.103Z,21.9
2019-03-27T06:48:42.426Z,21.9
2019-03-27T06:49:32.504Z,21.9
2019-03-27T06:50:22.549Z,21.9
2019-03-27T06:51:12.604Z,21.9
2019-03-27T06:52:02.661Z,21.9
2019-03-27T06:52:52.448Z,21.9
2019-03-27T06:53:42.789Z,21.9
2019-03-27T06:54:32.848Z,21.9
2019-03-27T06:55:22.909Z,21.9
2019-03-27T06:56:12.698Z,21.9
2019-03-27T06:57:03.113Z,21.9
2019-03-27T06:57:53.098Z,21.9
2019-03-27T06:58:55.701Z,21.9
2019-03-27T06:59:33.203Z,21.9
2019-03-27T07:00:23.265Z,21.9
2019-03-27T07:01:13.320Z,21.9
2019-03-27T07:02:03.481Z,21.9
2019-03-27T07:02:53.438Z,21.9
2019-03-27T07:06:23.715Z,21.9
2019-03-27T07:07:12.243Z,21.9
2019-03-27T07:08:02.027Z,21.9
2019-03-27T07:08:52.360Z,21.9
2019-03-27T07:09:43.414Z,21.9
2019-03-27T07:10:32.218Z,21.9
2019-03-27T07:11:21.989Z,21.9
2019-03-27T07:12:22.290Z,21.9
2019-03-27T07:13:02.677Z,21.9
2019-03-27T07:13:52.731Z,21.9
2019-03-27T07:14:42.510Z,21.9
2019-03-27T07:15:36.178Z,21.9
2019-03-27T07:16:22.625Z,21.9
2019-03-27T07:17:12.686Z,21.9
2019-03-27T07:18:03.030Z,21.9
2019-03-27T07:18:53.074Z,21.9
2019-03-27T07:19:43.134Z,21.9
2019-03-27T07:20:32.929Z,21.9
2019-03-27T07:21:23.269Z,21.9
2019-03-27T07:22:13.325Z,21.9
2019-03-27T07:23:03.389Z,21.9
2019-03-27T07:23:53.435Z,21.9
2019-03-27T07:24:43.233Z,21.9
2019-03-27T07:25:33.286Z,21.9
2019-03-27T07:26:23.622Z,21.9
2019-03-27T07:27:13.677Z,21.9
2019-03-27T07:28:03.754Z,21.9
2019-03-27T07:28:53.524Z,21.9
2019-03-27T07:29:43.592Z,21.9
2019-03-27T07:30:33.930Z,21.9
2019-03-27T07:31:23.994Z,22
2019-03-27T07:32:13.784Z,21.9
2019-03-27T07:33:03.837Z,21.9
2019-03-27T07:33:53.878Z,22
2019-03-27T07:34:44.226Z,22
2019-03-27T07:35:34.279Z,22
2019-03-27T07:36:24.073Z,21.9
2019-03-27T07:37:14.413Z,21.9
2019-03-27T07:38:04.190Z,22
2019-03-27T07:38:54.521Z,22
2019-03-27T07:39:44.583Z,22
2019-03-27T07:40:34.641Z,21.9
2019-03-27T07:41:24.732Z,22
2019-03-27T07:42:14.773Z,22
2019-03-27T07:43:04.828Z,21.9
2019-03-27T07:43:54.333Z,22
2019-03-27T07:44:44.945Z,22
2019-03-27T07:45:35.003Z,22
2019-03-27T07:46:25.063Z,22
2019-03-27T07:47:15.123Z,22
2019-03-27T07:48:05.187Z,22
2019-03-27T07:48:55.292Z,22
2019-03-27T07:49:45.316Z,22
2019-03-27T07:50:35.380Z,22
2019-03-27T07:51:25.425Z,22
2019-03-27T07:52:15.488Z,22
2019-03-27T07:53:05.275Z,22
2019-03-27T07:53:55.608Z,22
2019-03-27T07:54:45.685Z,22
2019-03-27T07:55:35.819Z,22
2019-03-27T07:56:25.791Z,22
2019-03-27T07:57:15.875Z,22
2019-03-27T07:58:05.912Z,22
2019-03-27T07:58:55.973Z,22
2019-03-27T07:59:45.765Z,22
2019-03-27T08:00:36.180Z,22
2019-03-27T08:01:26.147Z,22
2019-03-27T08:02:16.204Z,22
2019-03-27T08:03:06.277Z,22
2019-03-27T08:03:56.329Z,22
2019-03-27T08:04:45.843Z,22
2019-03-27T08:05:36.446Z,22.1
2019-03-27T08:06:26.513Z,22
2019-03-27T08:07:27.853Z,22
2019-03-27T08:08:06.642Z,22
2019-03-27T08:08:56.429Z,22.1
2019-03-27T08:09:46.817Z,22
2019-03-27T08:10:36.529Z,22
2019-03-27T08:11:27.209Z,22.1
2019-03-27T08:12:16.941Z,22
2019-03-27T08:13:06.755Z,22.1
2019-03-27T08:13:57.061Z,22.1
2019-03-27T08:14:47.193Z,22.1
2019-03-27T08:15:39.322Z,22.1
2019-03-27T08:16:26.968Z,22.1
2019-03-27T08:17:17.023Z,22.1
2019-03-27T08:18:07.082Z,22
2019-03-27T08:19:08.815Z,22.1
2019-03-27T08:19:47.485Z,22
2019-03-27T08:20:37.267Z,22.1
2019-03-27T08:21:30.782Z,22
2019-03-27T08:22:17.662Z,22.1
2019-03-27T08:23:07.446Z,22.1
2019-03-27T08:23:57.783Z,22.1
2019-03-27T08:24:47.571Z,22.1
2019-03-27T08:25:37.690Z,22.1
2019-03-27T08:26:27.962Z,22.1
2019-03-27T08:27:18.023Z,22.1
2019-03-27T08:28:07.802Z,22.1
2019-03-27T08:28:58.152Z,22
2019-03-27T08:29:48.212Z,22.1
2019-03-27T08:30:38.269Z,22.1
2019-03-27T08:31:28.324Z,22.1
2019-03-27T08:32:18.395Z,22.1
2019-03-27T08:33:08.449Z,22.1
2019-03-27T08:33:58.514Z,22.1
2019-03-27T08:34:48.304Z,22.1
2019-03-27T08:35:38.624Z,22.1
2019-03-27T08:36:28.697Z,22.1
2019-03-27T08:37:18.747Z,22.1
2019-03-27T08:38:08.537Z,22.1
2019-03-27T08:38:58.866Z,22.1
2019-03-27T08:39:48.932Z,22.1
2019-03-27T08:40:38.799Z,22.1
2019-03-27T08:41:29.043Z,22.1
2019-03-27T08:42:18.829Z,22.1
2019-03-27T08:43:25.836Z,22.1
2019-03-27T08:43:59.264Z,22.1
2019-03-27T08:44:49.293Z,22.1
2019-03-27T08:45:39.348Z,22.1
2019-03-27T08:46:29.416Z,22.1
2019-03-27T08:47:19.190Z,22.1
2019-03-27T08:48:09.532Z,22.1
2019-03-27T08:48:59.318Z,22.1
2019-03-27T08:49:49.647Z,22.1
2019-03-27T08:50:39.704Z,22.1
2019-03-27T08:51:29.772Z,22.1
2019-03-27T08:52:19.835Z,22.1
2019-03-27T08:53:09.897Z,22.1
2019-03-27T08:53:59.952Z,22.1
2019-03-27T08:54:50.037Z,22.1
2019-03-27T08:55:40.069Z,22.1
2019-03-27T08:56:29.857Z,22.1
2019-03-27T08:57:20.239Z,22.1
2019-03-27T08:58:10.254Z,22.1
2019-03-27T08:59:00.326Z,22.1
2019-03-27T08:59:50.364Z,22.1
2019-03-27T09:00:40.439Z,22.1
2019-03-27T09:01:30.539Z,22.1
2019-03-27T09:02:20.551Z,22
2019-03-27T09:03:10.334Z,22.1
2019-03-27T09:04:00.941Z,22
2019-03-27T09:04:50.734Z,22.1
2019-03-27T09:05:40.790Z,22.1
2019-03-27T09:06:35.181Z,22.1
2019-03-27T09:07:20.904Z,22.1
2019-03-27T09:08:10.974Z,22.1
2019-03-27T09:09:00.756Z,22.1
2019-03-27T09:09:51.093Z,22.1
2019-03-27T09:10:41.157Z,22.1
2019-03-27T09:11:30.949Z,22.1
2019-03-27T09:12:21.001Z,22.1
2019-03-27T09:13:11.342Z,22.1
2019-03-27T09:14:01.391Z,22.1
2019-03-27T09:14:51.441Z,22.1
2019-03-27T09:15:41.516Z,22.1
2019-03-27T09:16:31.306Z,22.1
2019-03-27T09:17:21.353Z,22.1
2019-03-27T09:18:11.691Z,22.1
2019-03-27T09:19:01.750Z,22.1
2019-03-27T09:19:51.806Z,22.1
2019-03-27T09:20:41.870Z,22.1
2019-03-27T09:21:31.926Z,22.1
2019-03-27T09:22:22.033Z,22.1
2019-03-27T09:23:12.065Z,22.1
2019-03-27T09:24:02.123Z,22.1
2019-03-27T09:24:52.177Z,22.1
2019-03-27T09:25:41.953Z,22.1
2019-03-27T09:26:32.292Z,22.1
2019-03-27T09:27:22.073Z,22.1
2019-03-27T09:28:12.419Z,22.1
2019-03-27T09:29:02.482Z,22.1
2019-03-27T09:29:52.532Z,22.1
2019-03-27T09:30:42.595Z,22.1
2019-03-27T09:31:46.023Z,22.1
2019-03-27T09:32:22.430Z,22.1
2019-03-27T09:33:12.770Z,22.1
2019-03-27T09:34:02.835Z,22.1
2019-03-27T09:34:52.893Z,22.1
2019-03-27T09:35:42.955Z,22.1
2019-03-27T09:36:32.823Z,22.1
2019-03-27T09:37:23.067Z,22.1
2019-03-27T09:38:13.127Z,22.1
2019-03-27T09:39:03.202Z,22.1
2019-03-27T09:39:53.274Z,22.1
2019-03-27T09:40:43.302Z,22.1
2019-03-27T09:41:33.384Z,22.1
2019-03-27T09:42:23.430Z,22.1
2019-03-27T09:43:13.209Z,22.1
2019-03-27T09:44:03.555Z,22.1
2019-03-27T09:44:53.841Z,22.1
2019-03-27T09:45:43.670Z,22.1
2019-03-27T09:46:33.446Z,22
2019-03-27T09:47:23.804Z,22.1
2019-03-27T09:48:13.847Z,22.1
2019-03-27T09:49:03.917Z,22.1
2019-03-27T09:49:53.971Z,22.1
2019-03-27T09:50:44.040Z,22.1
2019-03-27T09:51:34.091Z,22.1
2019-03-27T09:52:23.881Z,22.1
2019-03-27T09:53:14.211Z,22.1
2019-03-27T09:54:04.280Z,22.1
2019-03-27T09:54:54.331Z,22.1
2019-03-27T09:55:44.113Z,22
2019-03-27T09:56:34.459Z,22.1
2019-03-27T09:57:24.238Z,22.1
2019-03-27T09:58:14.584Z,22.1
2019-03-27T09:59:07.067Z,22
2019-03-27T09:59:54.423Z,22.1
2019-03-27T10:00:44.745Z,22
2019-03-27T10:01:34.810Z,22.1
2019-03-27T10:02:24.598Z,22
2019-03-27T10:03:14.948Z,22.1
2019-03-27T10:04:04.985Z,22
2019-03-27T10:06:19.130Z,22
2019-03-27T10:07:09.118Z,22
2019-03-27T10:07:59.247Z,22
2019-03-27T10:08:49.306Z,22.1
2019-03-27T10:09:39.374Z,22
2019-03-27T10:10:29.435Z,22.1
2019-03-27T10:11:19.488Z,22
2019-03-27T10:12:09.555Z,22.1
2019-03-27T10:12:59.605Z,22
2019-03-27T10:13:49.110Z,22
2019-03-27T10:14:39.712Z,22
2019-03-27T10:15:29.510Z,22
2019-03-27T10:16:20.280Z,22
2019-03-27T10:17:09.637Z,22
2019-03-27T10:17:59.410Z,22
2019-03-27T10:18:50.035Z,22.1
2019-03-27T10:19:39.823Z,22
2019-03-27T10:20:30.142Z,22
2019-03-27T10:21:20.213Z,22
2019-03-27T10:22:09.984Z,22
2019-03-27T10:23:00.404Z,22
2019-03-27T10:23:50.389Z,22
2019-03-27T10:24:40.445Z,22
2019-03-27T10:25:30.497Z,22
2019-03-27T10:26:20.564Z,22
2019-03-27T10:27:10.617Z,22
2019-03-27T10:28:00.755Z,22
2019-03-27T10:28:50.466Z,22
2019-03-27T10:29:40.799Z,22
2019-03-27T10:30:30.597Z,22
2019-03-27T10:31:20.918Z,22
2019-03-27T10:32:10.984Z,22
2019-03-27T10:33:00.763Z,22
2019-03-27T10:33:51.105Z,22
2019-03-27T10:34:40.879Z,22
2019-03-27T10:35:30.939Z,22
2019-03-27T10:36:21.274Z,22
2019-03-27T10:37:11.336Z,22
2019-03-27T10:38:01.116Z,22
2019-03-27T10:38:51.456Z,22
2019-03-27T10:39:41.513Z,22
2019-03-27T10:40:31.028Z,22
2019-03-27T10:41:21.633Z,22
2019-03-27T10:42:11.704Z,22
2019-03-27T10:43:01.494Z,22
2019-03-27T10:43:51.823Z,22
2019-03-27T10:44:41.611Z,22
2019-03-27T10:45:31.936Z,22
2019-03-27T10:46:21.729Z,22
2019-03-27T10:47:12.056Z,22
2019-03-27T10:48:02.129Z,22
2019-03-27T10:48:54.015Z,22
2019-03-27T10:49:42.248Z,22
2019-03-27T10:50:32.298Z,22
2019-03-27T10:51:22.370Z,22
2019-03-27T10:52:12.148Z,22
2019-03-27T10:53:02.475Z,22
2019-03-27T10:53:52.275Z,22
2019-03-27T10:54:42.603Z,22
2019-03-27T10:55:35.513Z,22
2019-03-27T10:56:22.452Z,22
2019-03-27T10:57:12.782Z,22
2019-03-27T10:58:03.005Z,22
2019-03-27T10:58:52.894Z,22
2019-03-27T10:59:42.975Z,22
2019-03-27T11:00:33.017Z,22
2019-03-27T11:01:23.117Z,22
2019-03-27T11:02:13.210Z,22
2019-03-27T11:03:02.944Z,22
2019-03-27T11:03:53.330Z,22
2019-03-27T11:04:43.052Z,22
2019-03-27T11:05:33.379Z,22
2019-03-27T11:06:23.448Z,22
2019-03-27T11:07:13.507Z,22
2019-03-27T11:08:03.564Z,22
2019-03-27T11:08:53.629Z,22
2019-03-27T11:09:43.417Z,22
2019-03-27T11:10:33.472Z,22
2019-03-27T11:11:23.537Z,22
2019-03-27T11:12:13.869Z,21.9
2019-03-27T11:13:03.658Z,21.9
2019-03-27T11:13:53.977Z,21.9
2019-03-27T11:14:44.049Z,21.9
2019-03-27T11:15:33.829Z,22
2019-03-27T11:16:24.171Z,21.9
2019-03-27T11:17:14.262Z,22
2019-03-27T11:18:04.301Z,21.9
2019-03-27T11:18:54.341Z,22
2019-03-27T11:19:44.406Z,22
2019-03-27T11:20:34.459Z,22
2019-03-27T11:21:24.531Z,21.9